Time;durP1;ratioP1;P1;durP2;ratioP2;P2;SDS_P1;SDS_P2;PMS_P1;PMS_P2;Temp;Humidity;BMP_temperature;BMP_pressure;BME280_temperature;BME280_humidity;BME280_pressure;Samples;Min_cycle;Max_cycle;Signal;HPM_P1;HPM_P2
2023/11/07 00:01:53;;;;;;;8.33;4.93;;;;;;;;;;4958844;28;20588;-86
2023/11/07 00:04:21;;;;;;;7.27;4.23;;;;;;;;;;4940346;28;20222;-85
2023/11/07 00:06:49;;;;;;;6.43;4.60;;;;;;;;;;4975236;28;20218;-87
2023/11/07 00:09:17;;;;;;;6.10;4.83;;;;;;;;;;4959377;28;20222;-84
2023/11/07 00:11:42;;;;;;;6.63;5.23;;;;;;;;;;4959378;28;20249;-85
2023/11/07 00:14:12;;;;;;;6.90;5.40;;;;;;;;;;4937924;28;20750;-87
2023/11/07 00:16:39;;;;;;;6.60;5.20;;;;;;;;;;4956476;28;20223;-86
2023/11/07 00:19:05;;;;;;;7.63;5.70;;;;;;;;;;4944945;28;20226;-85
2023/11/07 00:21:31;;;;;;;9.10;5.60;;;;;;;;;;4931724;28;20228;-86
2023/11/07 00:23:59;;;;;;;12.50;5.70;;;;;;;;;;4938623;28;20214;-86
2023/11/07 00:26:27;;;;;;;7.43;5.03;;;;;;;;;;4953719;28;20309;-86
2023/11/07 00:28:53;;;;;;;9.07;5.27;;;;;;;;;;4949151;28;20230;-85
2023/11/07 00:31:18;;;;;;;9.87;6.20;;;;;;;;;;4957581;28;20233;-87
2023/11/07 00:33:44;;;;;;;8.20;5.77;;;;;;;;;;4935840;28;20222;-86
2023/11/07 00:36:12;;;;;;;9.97;6.00;;;;;;;;;;4953824;28;20232;-87
2023/11/07 00:38:37;;;;;;;9.90;5.57;;;;;;;;;;4953104;28;20227;-87
2023/11/07 00:41:05;;;;;;;10.23;5.87;;;;;;;;;;4923561;28;20305;-87
2023/11/07 00:43:31;;;;;;;11.67;5.90;;;;;;;;;;4954927;28;20218;-85
2023/11/07 00:46:01;;;;;;;8.43;5.90;;;;;;;;;;4940446;28;20218;-88
2023/11/07 00:48:31;;;;;;;10.17;6.07;;;;;;;;;;4940470;28;20301;-86
2023/11/07 00:51:01;;;;;;;12.17;5.90;;;;;;;;;;4954674;28;20215;-86
2023/11/07 00:53:29;;;;;;;9.60;6.40;;;;;;;;;;4958179;28;20305;-86
2023/11/07 00:55:59;;;;;;;7.10;5.90;;;;;;;;;;4967161;28;20206;-86
2023/11/07 00:58:24;;;;;;;10.60;6.03;;;;;;;;;;4941306;28;20234;-86
2023/11/07 01:00:52;;;;;;;7.67;5.80;;;;;;;;;;4952566;28;20213;-87
2023/11/07 01:03:18;;;;;;;10.30;6.57;;;;;;;;;;4939415;28;20253;-86
2023/11/07 01:05:46;;;;;;;8.77;6.20;;;;;;;;;;4958659;28;20242;-86
2023/11/07 01:08:15;;;;;;;10.33;5.90;;;;;;;;;;4945405;28;20666;-86
2023/11/07 01:10:41;;;;;;;9.37;6.10;;;;;;;;;;4947072;28;20242;-87
2023/11/07 01:13:11;;;;;;;6.10;5.23;;;;;;;;;;4951197;28;20703;-86
2023/11/07 01:15:37;;;;;;;7.97;5.10;;;;;;;;;;4969600;28;20700;-87
2023/11/07 01:18:06;;;;;;;8.53;5.10;;;;;;;;;;4934267;28;20218;-84
2023/11/07 01:20:34;;;;;;;7.33;4.90;;;;;;;;;;4938076;28;20695;-87
2023/11/07 01:23:02;;;;;;;6.17;5.00;;;;;;;;;;4939084;28;20699;-88
2023/11/07 01:25:31;;;;;;;9.37;5.20;;;;;;;;;;4938616;28;20238;-85
2023/11/07 01:27:56;;;;;;;7.23;5.30;;;;;;;;;;4938003;28;20277;-86
2023/11/07 01:30:22;;;;;;;9.53;5.33;;;;;;;;;;4936309;28;20991;-87
2023/11/07 01:32:49;;;;;;;10.20;5.77;;;;;;;;;;4939539;28;20256;-85
2023/11/07 01:35:16;;;;;;;6.97;4.93;;;;;;;;;;4938424;28;20230;-85
2023/11/07 01:37:44;;;;;;;6.63;5.20;;;;;;;;;;4938565;28;20226;-85
2023/11/07 01:40:10;;;;;;;9.13;5.17;;;;;;;;;;4926054;28;20795;-83
2023/11/07 01:42:45;;;;;;;7.53;4.93;;;;;;;;;;4923658;28;20230;-84
2023/11/07 01:45:11;;;;;;;11.83;5.50;;;;;;;;;;4924406;28;20312;-86
2023/11/07 01:47:39;;;;;;;7.07;5.27;;;;;;;;;;4936608;28;20230;-84
2023/11/07 01:50:09;;;;;;;7.70;4.87;;;;;;;;;;4913903;28;20260;-85
2023/11/07 01:52:34;;;;;;;7.57;4.90;;;;;;;;;;4933031;28;20226;-83
2023/11/07 01:55:08;;;;;;;6.60;4.80;;;;;;;;;;4926032;28;20301;-86
2023/11/07 01:57:35;;;;;;;7.70;4.93;;;;;;;;;;4919456;29;20231;-86
2023/11/07 02:00:08;;;;;;;6.20;4.07;;;;;;;;;;4927492;29;20708;-87
2023/11/07 02:02:40;;;;;;;7.20;4.20;;;;;;;;;;4968034;28;20229;-85
2023/11/07 02:05:06;;;;;;;7.40;4.83;;;;;;;;;;4927271;28;20233;-84
2023/11/07 02:07:32;;;;;;;7.97;4.97;;;;;;;;;;4929980;28;20216;-85
2023/11/07 02:09:58;;;;;;;7.50;4.70;;;;;;;;;;4917297;29;20227;-85
2023/11/07 02:12:28;;;;;;;9.67;4.80;;;;;;;;;;4919665;28;20594;-85
2023/11/07 02:14:56;;;;;;;6.53;4.67;;;;;;;;;;4920612;29;20223;-87
2023/11/07 02:17:24;;;;;;;6.33;4.23;;;;;;;;;;4924379;28;20222;-86
2023/11/07 02:19:50;;;;;;;7.63;4.80;;;;;;;;;;4919150;29;20239;-86
2023/11/07 02:22:18;;;;;;;5.73;4.40;;;;;;;;;;4939873;28;20218;-86
2023/11/07 02:24:45;;;;;;;5.10;3.87;;;;;;;;;;4933165;28;20291;-85
2023/11/07 02:27:16;;;;;;;8.50;4.40;;;;;;;;;;4924344;28;20233;-86
2023/11/07 02:29:45;;;;;;;7.30;4.50;;;;;;;;;;4941445;28;20782;-87
2023/11/07 02:32:10;;;;;;;7.03;4.03;;;;;;;;;;4912232;28;20230;-87
2023/11/07 02:34:38;;;;;;;7.43;4.47;;;;;;;;;;4955765;28;20310;-87
2023/11/07 02:37:04;;;;;;;8.63;4.47;;;;;;;;;;4940975;28;20224;-86
2023/11/07 02:39:30;;;;;;;6.80;4.00;;;;;;;;;;4963967;28;20670;-85
2023/11/07 02:42:01;;;;;;;5.97;3.60;;;;;;;;;;4952863;28;20646;-86
2023/11/07 02:44:29;;;;;;;7.87;3.93;;;;;;;;;;4932688;29;20215;-88
2023/11/07 02:46:55;;;;;;;7.67;3.67;;;;;;;;;;4934978;28;20227;-87
2023/11/07 02:49:21;;;;;;;7.53;3.90;;;;;;;;;;4919822;28;20231;-86
2023/11/07 02:51:49;;;;;;;9.77;3.87;;;;;;;;;;4942997;29;20571;-85
2023/11/07 02:54:19;;;;;;;8.37;4.10;;;;;;;;;;4922363;28;20219;-86
2023/11/07 02:56:44;;;;;;;5.60;3.60;;;;;;;;;;4920548;29;20231;-87
2023/11/07 02:59:16;;;;;;;6.17;3.50;;;;;;;;;;4920465;28;20261;-88
2023/11/07 03:01:41;;;;;;;3.60;3.30;;;;;;;;;;4917350;29;20231;-88
2023/11/07 03:04:11;;;;;;;6.70;3.67;;;;;;;;;;4908621;28;20300;-85
2023/11/07 03:06:39;;;;;;;6.57;3.53;;;;;;;;;;4928630;29;20231;-86
2023/11/07 03:09:07;;;;;;;5.67;3.30;;;;;;;;;;4925888;28;20245;-85
2023/11/07 03:11:33;;;;;;;7.67;3.67;;;;;;;;;;4954634;28;20231;-87
2023/11/07 03:13:59;;;;;;;7.97;3.80;;;;;;;;;;4937209;29;20227;-85
2023/11/07 03:16:24;;;;;;;9.17;3.40;;;;;;;;;;4936883;28;20314;-88
2023/11/07 03:18:50;;;;;;;3.57;2.83;;;;;;;;;;4946160;28;20227;-85
2023/11/07 03:21:18;;;;;;;7.53;3.03;;;;;;;;;;4934290;28;20303;-85
2023/11/07 03:23:45;;;;;;;9.53;3.50;;;;;;;;;;4929120;29;20211;-87
2023/11/07 03:26:10;;;;;;;5.07;2.90;;;;;;;;;;4901479;28;20231;-86
2023/11/07 03:28:38;;;;;;;4.50;3.33;;;;;;;;;;4951588;28;20239;-87
2023/11/07 03:31:04;;;;;;;3.90;2.90;;;;;;;;;;4920940;28;20699;-86
2023/11/07 03:33:32;;;;;;;5.07;3.07;;;;;;;;;;4918925;29;20223;-86
2023/11/07 03:36:00;;;;;;;7.03;3.37;;;;;;;;;;4936700;29;20215;-85
2023/11/07 03:38:28;;;;;;;10.10;3.50;;;;;;;;;;4945771;28;20301;-85
2023/11/07 03:40:54;;;;;;;4.03;3.43;;;;;;;;;;4954198;28;21044;-85
2023/11/07 03:43:22;;;;;;;4.73;3.00;;;;;;;;;;4933688;28;20233;-85
2023/11/07 03:45:50;;;;;;;7.30;3.10;;;;;;;;;;4933680;28;20254;-87
2023/11/07 03:48:18;;;;;;;7.90;3.50;;;;;;;;;;4938038;28;20285;-84
2023/11/07 03:50:46;;;;;;;9.27;3.60;;;;;;;;;;4939658;28;20227;-86
2023/11/07 03:53:11;;;;;;;4.73;3.23;;;;;;;;;;4921022;28;20227;-87
2023/11/07 03:55:39;;;;;;;7.07;3.43;;;;;;;;;;4924468;29;20815;-85
2023/11/07 03:58:05;;;;;;;6.17;3.23;;;;;;;;;;4907901;28;20234;-86
2023/11/07 04:04:18;;;;;;;5.27;2.97;;;;;;;;;;4969760;28;20246;-87
2023/11/07 04:06:45;;;;;;;5.50;2.90;;;;;;;;;;4977431;28;20270;-85
2023/11/07 04:09:11;;;;;;;8.43;2.93;;;;;;;;;;4952682;28;20230;-85
2023/11/07 04:11:39;;;;;;;8.03;3.07;;;;;;;;;;4947802;28;20230;-87
2023/11/07 04:14:07;;;;;;;5.40;3.30;;;;;;;;;;4974995;28;20258;-86
2023/11/07 04:16:32;;;;;;;5.90;2.93;;;;;;;;;;4932980;29;20689;-88
2023/11/07 04:18:59;;;;;;;6.07;2.97;;;;;;;;;;4944598;28;20237;-86
2023/11/07 04:21:27;;;;;;;4.80;3.23;;;;;;;;;;4955410;28;20214;-86
2023/11/07 04:23:53;;;;;;;4.23;2.47;;;;;;;;;;4967316;28;20463;-87
2023/11/07 04:26:21;;;;;;;6.37;2.93;;;;;;;;;;4965711;28;20261;-86
2023/11/07 04:28:48;;;;;;;4.13;2.73;;;;;;;;;;4970939;28;20222;-85
2023/11/07 04:31:16;;;;;;;6.27;2.77;;;;;;;;;;4984354;28;20270;-86
2023/11/07 04:33:45;;;;;;;8.73;3.17;;;;;;;;;;4979487;28;20203;-87
2023/11/07 04:36:12;;;;;;;7.60;3.10;;;;;;;;;;4988160;28;20268;-84
2023/11/07 04:38:41;;;;;;;4.93;3.03;;;;;;;;;;4961975;28;20265;-84
2023/11/07 04:41:07;;;;;;;5.03;2.70;;;;;;;;;;4958433;28;20222;-88
2023/11/07 04:43:35;;;;;;;6.00;3.03;;;;;;;;;;4924227;28;20635;-88
2023/11/07 04:46:04;;;;;;;7.17;2.70;;;;;;;;;;4943715;28;20722;-87
2023/11/07 04:48:31;;;;;;;7.17;3.23;;;;;;;;;;4946207;28;20230;-89
2023/11/07 04:51:02;;;;;;;6.50;3.00;;;;;;;;;;4942997;28;20253;-79
2023/11/07 04:53:30;;;;;;;5.53;3.07;;;;;;;;;;4981880;28;20319;-79
2023/11/07 04:55:55;;;;;;;5.23;2.67;;;;;;;;;;4936489;28;20223;-79
2023/11/07 04:58:23;;;;;;;7.90;3.23;;;;;;;;;;4936723;28;20263;-78
2023/11/07 05:00:48;;;;;;;4.97;2.80;;;;;;;;;;4940454;28;20218;-79
2023/11/07 05:03:14;;;;;;;10.03;3.00;;;;;;;;;;4935891;28;20222;-79
2023/11/07 05:05:39;;;;;;;5.37;3.20;;;;;;;;;;4937235;29;20231;-79
2023/11/07 05:08:05;;;;;;;4.93;2.83;;;;;;;;;;4954297;28;20230;-80
2023/11/07 05:10:31;;;;;;;4.33;2.73;;;;;;;;;;4922484;29;20234;-77
2023/11/07 05:12:58;;;;;;;8.03;2.80;;;;;;;;;;4920777;29;20507;-78
2023/11/07 05:15:24;;;;;;;5.80;2.80;;;;;;;;;;4935225;28;20302;-78
2023/11/07 05:17:51;;;;;;;5.97;2.60;;;;;;;;;;4935209;29;20770;-79
2023/11/07 05:20:17;;;;;;;5.03;2.50;;;;;;;;;;4918769;28;20302;-76
2023/11/07 05:22:43;;;;;;;7.40;3.10;;;;;;;;;;4945698;29;20246;-77
2023/11/07 05:25:08;;;;;;;6.37;3.17;;;;;;;;;;4939335;28;20235;-77
2023/11/07 05:27:39;;;;;;;6.50;3.37;;;;;;;;;;4946453;29;20231;-78
2023/11/07 05:30:08;;;;;;;4.23;3.03;;;;;;;;;;4956615;28;20214;-77
2023/11/07 05:32:35;;;;;;;5.87;2.43;;;;;;;;;;4949636;28;20289;-79
2023/11/07 05:35:02;;;;;;;6.57;2.70;;;;;;;;;;4937201;28;20696;-78
2023/11/07 05:37:33;;;;;;;6.83;2.97;;;;;;;;;;4947477;28;20316;-77
2023/11/07 05:39:58;;;;;;;5.60;3.17;;;;;;;;;;4967241;28;20292;-76
2023/11/07 05:42:25;;;;;;;4.97;2.83;;;;;;;;;;4958997;28;20227;-77
2023/11/07 05:44:53;;;;;;;6.63;2.93;;;;;;;;;;4974878;28;20234;-77
2023/11/07 05:47:19;;;;;;;3.70;2.80;;;;;;;;;;4975234;28;20229;-77
2023/11/07 05:49:46;;;;;;;5.70;3.00;;;;;;;;;;4948167;28;20226;-77
2023/11/07 05:52:11;;;;;;;14.13;3.10;;;;;;;;;;4974252;28;20246;-77
2023/11/07 05:54:39;;;;;;;7.07;3.40;;;;;;;;;;4960290;28;20229;-79
2023/11/07 05:57:05;;;;;;;5.23;3.17;;;;;;;;;;4955980;28;20233;-81
2023/11/07 05:59:31;;;;;;;3.87;2.90;;;;;;;;;;4958662;28;20240;-77
2023/11/07 06:01:59;;;;;;;7.77;3.23;;;;;;;;;;4961240;28;20222;-78
2023/11/07 06:04:32;;;;;;;5.13;2.97;;;;;;;;;;4974717;28;20239;-77
2023/11/07 06:07:02;;;;;;;7.93;3.07;;;;;;;;;;4974215;28;20218;-78
2023/11/07 06:09:28;;;;;;;6.87;3.37;;;;;;;;;;4942520;28;20230;-77
2023/11/07 06:11:56;;;;;;;9.80;3.60;;;;;;;;;;4974254;28;20798;-77
2023/11/07 06:14:25;;;;;;;6.43;3.53;;;;;;;;;;4942150;28;20219;-77
2023/11/07 06:16:56;;;;;;;6.60;3.47;;;;;;;;;;4971021;28;20236;-76
2023/11/07 06:19:24;;;;;;;6.67;3.07;;;;;;;;;;4963845;28;20237;-78
2023/11/07 06:21:50;;;;;;;4.73;2.93;;;;;;;;;;4974949;28;20226;-77
2023/11/07 06:24:16;;;;;;;6.80;3.33;;;;;;;;;;4971289;28;20241;-77
2023/11/07 06:26:42;;;;;;;5.10;3.00;;;;;;;;;;4984400;28;20281;-78
2023/11/07 06:29:09;;;;;;;6.80;3.00;;;;;;;;;;4963766;28;20255;-77
2023/11/07 06:31:34;;;;;;;5.03;3.43;;;;;;;;;;4974693;28;20230;-79
2023/11/07 06:34:00;;;;;;;7.20;3.43;;;;;;;;;;4967439;28;20225;-76
2023/11/07 06:36:26;;;;;;;3.57;2.80;;;;;;;;;;4969698;28;20226;-78
2023/11/07 06:38:57;;;;;;;5.20;3.10;;;;;;;;;;4954100;28;20321;-77
2023/11/07 06:41:23;;;;;;;6.87;3.30;;;;;;;;;;4942730;28;20681;-78
2023/11/07 06:43:50;;;;;;;4.67;3.23;;;;;;;;;;4942517;28;20264;-77
2023/11/07 06:46:15;;;;;;;3.73;3.10;;;;;;;;;;4949764;28;20237;-77
2023/11/07 06:48:43;;;;;;;5.30;3.63;;;;;;;;;;4974045;28;20226;-76
2023/11/07 06:51:14;;;;;;;4.03;3.40;;;;;;;;;;4971920;28;20240;-77
2023/11/07 06:53:39;;;;;;;5.50;4.07;;;;;;;;;;4957053;28;20227;-78
2023/11/07 06:56:07;;;;;;;7.53;4.50;;;;;;;;;;4954758;28;20230;-77
2023/11/07 06:58:35;;;;;;;10.97;6.73;;;;;;;;;;4973484;28;20766;-78
2023/11/07 07:01:02;;;;;;;12.17;7.00;;;;;;;;;;4945795;28;20222;-77
2023/11/07 07:03:27;;;;;;;9.23;6.83;;;;;;;;;;4953582;28;20284;-77
2023/11/07 07:05:53;;;;;;;12.00;8.27;;;;;;;;;;4983856;28;20633;-78
2023/11/07 07:08:19;;;;;;;13.87;7.80;;;;;;;;;;4944123;28;20292;-76
2023/11/07 07:10:45;;;;;;;7.93;4.47;;;;;;;;;;4951785;28;20226;-78
2023/11/07 07:13:13;;;;;;;10.77;6.20;;;;;;;;;;4958653;28;20236;-78
2023/11/07 07:15:41;;;;;;;9.80;6.10;;;;;;;;;;4948757;28;20218;-78
2023/11/07 07:18:07;;;;;;;10.77;6.70;;;;;;;;;;4965162;28;20267;-78
2023/11/07 07:20:36;;;;;;;7.97;5.97;;;;;;;;;;4956547;28;20232;-78
2023/11/07 07:23:05;;;;;;;9.00;5.80;;;;;;;;;;4934195;28;20218;-78
2023/11/07 07:25:32;;;;;;;7.43;5.03;;;;;;;;;;4977770;28;20214;-76
2023/11/07 07:27:58;;;;;;;8.43;3.63;;;;;;;;;;4960190;28;20290;-78
2023/11/07 07:30:26;;;;;;;8.27;4.47;;;;;;;;;;4983818;28;20237;-78
2023/11/07 07:32:52;;;;;;;7.63;3.80;;;;;;;;;;4940169;28;20230;-78
2023/11/07 07:35:20;;;;;;;4.37;3.37;;;;;;;;;;4959390;28;20222;-79
2023/11/07 07:37:51;;;;;;;4.73;4.30;;;;;;;;;;4954409;28;20257;-77
2023/11/07 07:40:25;;;;;;;4.40;3.70;;;;;;;;;;4970418;28;20250;-80
2023/11/07 07:42:53;;;;;;;4.80;3.23;;;;;;;;;;4958407;28;20230;-78
2023/11/07 07:45:22;;;;;;;6.43;3.80;;;;;;;;;;4957674;28;20680;-78
2023/11/07 07:47:50;;;;;;;6.30;3.67;;;;;;;;;;4955567;28;20349;-78
2023/11/07 07:50:18;;;;;;;5.13;2.90;;;;;;;;;;4944939;28;20219;-77
2023/11/07 07:52:45;;;;;;;7.13;3.33;;;;;;;;;;4958768;28;20272;-77
2023/11/07 07:55:14;;;;;;;4.80;3.30;;;;;;;;;;4960875;28;20247;-79
2023/11/07 07:57:41;;;;;;;4.90;3.30;;;;;;;;;;4932303;28;20230;-78
2023/11/07 08:00:14;;;;;;;4.50;2.87;;;;;;;;;;4956250;28;20293;-76
2023/11/07 08:02:46;;;;;;;5.17;2.93;;;;;;;;;;4924718;28;20226;-77
2023/11/07 08:05:17;;;;;;;4.83;2.77;;;;;;;;;;4947446;28;20218;-78
2023/11/07 08:07:46;;;;;;;4.00;2.77;;;;;;;;;;4967607;28;20223;-77
2023/11/07 08:10:21;;;;;;;4.00;2.83;;;;;;;;;;4967413;28;20230;-77
2023/11/07 08:12:49;;;;;;;4.27;3.00;;;;;;;;;;4954285;28;20229;-77
2023/11/07 08:15:16;;;;;;;5.33;3.23;;;;;;;;;;4964431;28;20229;-77
2023/11/07 08:17:50;;;;;;;6.30;3.10;;;;;;;;;;4975579;28;20627;-77
2023/11/07 08:20:17;;;;;;;3.70;2.77;;;;;;;;;;4953595;28;20223;-76
2023/11/07 08:22:45;;;;;;;5.07;2.90;;;;;;;;;;4978764;28;20250;-77
2023/11/07 08:25:13;;;;;;;4.83;2.90;;;;;;;;;;4955496;28;20223;-77
2023/11/07 08:27:40;;;;;;;4.53;2.23;;;;;;;;;;4958306;28;20219;-78
2023/11/07 08:30:10;;;;;;;2.13;1.93;;;;;;;;;;4951172;28;20349;-79
2023/11/07 08:32:44;;;;;;;3.73;2.07;;;;;;;;;;4952801;28;20237;-77
2023/11/07 08:35:15;;;;;;;4.97;2.50;;;;;;;;;;4955600;28;20222;-77
2023/11/07 08:37:41;;;;;;;4.33;2.23;;;;;;;;;;4959334;28;20506;-77
2023/11/07 08:40:12;;;;;;;5.43;2.30;;;;;;;;;;4935286;28;20280;-79
2023/11/07 08:42:43;;;;;;;2.67;1.80;;;;;;;;;;4957510;28;20245;-77
2023/11/07 08:45:18;;;;;;;2.07;1.70;;;;;;;;;;4977595;28;20230;-77
2023/11/07 08:47:56;;;;;;;2.37;1.90;;;;;;;;;;4965516;28;20274;-78
2023/11/07 08:50:22;;;;;;;8.07;2.47;;;;;;;;;;4934131;28;20246;-77
2023/11/07 08:52:47;;;;;;;6.87;2.23;;;;;;;;;;4921246;29;20242;-77
2023/11/07 08:55:16;;;;;;;3.00;2.30;;;;;;;;;;4920907;28;20796;-78
2023/11/07 08:57:44;;;;;;;6.03;2.10;;;;;;;;;;4965092;28;20239;-78
2023/11/07 09:00:12;;;;;;;4.00;2.10;;;;;;;;;;4936124;28;20234;-79
2023/11/07 09:02:38;;;;;;;4.50;2.37;;;;;;;;;;4933170;29;20301;-78
2023/11/07 09:05:05;;;;;;;2.20;1.80;;;;;;;;;;4919657;28;20675;-78
2023/11/07 09:07:31;;;;;;;5.17;2.00;;;;;;;;;;4930627;29;20226;-75
2023/11/07 09:09:57;;;;;;;3.80;2.03;;;;;;;;;;4960101;28;20229;-78
2023/11/07 09:12:23;;;;;;;3.30;1.80;;;;;;;;;;4944314;28;20231;-79
2023/11/07 09:14:49;;;;;;;5.33;2.20;;;;;;;;;;4918815;29;20789;-77
2023/11/07 09:17:24;;;;;;;4.10;1.87;;;;;;;;;;4943943;28;20235;-78
2023/11/07 09:19:50;;;;;;;3.47;1.77;;;;;;;;;;4960318;28;20677;-77
2023/11/07 09:22:18;;;;;;;2.97;1.60;;;;;;;;;;4918431;28;20645;-78
2023/11/07 09:24:44;;;;;;;2.73;1.63;;;;;;;;;;4945581;28;20234;-79
2023/11/07 09:27:10;;;;;;;4.97;1.53;;;;;;;;;;4921257;28;20224;-77
2023/11/07 09:29:37;;;;;;;2.30;2.00;;;;;;;;;;4943244;28;20226;-78
2023/11/07 09:32:13;;;;;;;2.63;1.70;;;;;;;;;;4920599;29;20671;-79
2023/11/07 09:34:40;;;;;;;3.07;1.60;;;;;;;;;;4944187;28;20222;-78
2023/11/07 09:37:07;;;;;;;4.47;1.70;;;;;;;;;;4938913;28;20639;-78
2023/11/07 09:39:40;;;;;;;4.33;1.50;;;;;;;;;;4955967;28;20234;-79
2023/11/07 09:42:08;;;;;;;3.17;1.40;;;;;;;;;;4935313;28;20236;-78
2023/11/07 09:44:39;;;;;;;3.40;1.57;;;;;;;;;;4962481;28;20218;-79
2023/11/07 09:47:07;;;;;;;3.13;1.37;;;;;;;;;;4937969;28;20257;-79
2023/11/07 09:49:33;;;;;;;2.13;1.50;;;;;;;;;;4948672;28;20234;-80
2023/11/07 09:52:07;;;;;;;2.27;1.43;;;;;;;;;;4962635;28;20278;-79
2023/11/07 09:54:36;;;;;;;4.07;1.60;;;;;;;;;;4951370;28;20337;-79
2023/11/07 09:57:05;;;;;;;4.03;1.53;;;;;;;;;;4920558;29;20285;-79
2023/11/07 09:59:35;;;;;;;2.23;1.30;;;;;;;;;;4963113;28;20222;-79
2023/11/07 10:02:05;;;;;;;3.77;1.73;;;;;;;;;;4962210;28;20236;-79
2023/11/07 10:04:34;;;;;;;2.87;1.50;;;;;;;;;;4945116;28;20270;-79
2023/11/07 10:07:00;;;;;;;2.20;1.80;;;;;;;;;;4983303;28;20226;-78
2023/11/07 10:09:26;;;;;;;3.47;1.50;;;;;;;;;;4949584;28;20227;-81
2023/11/07 10:11:56;;;;;;;4.23;1.10;;;;;;;;;;4930822;28;20222;-80
2023/11/07 10:14:21;;;;;;;1.97;1.50;;;;;;;;;;4949300;28;20234;-78
2023/11/07 10:16:54;;;;;;;2.13;1.50;;;;;;;;;;4965060;28;20229;-79
2023/11/07 10:19:23;;;;;;;3.67;1.37;;;;;;;;;;4948972;28;20698;-79
2023/11/07 10:21:51;;;;;;;3.37;1.40;;;;;;;;;;4983219;28;20209;-81
2023/11/07 10:24:19;;;;;;;2.37;1.23;;;;;;;;;;4952214;28;20306;-80
2023/11/07 10:26:50;;;;;;;1.90;1.10;;;;;;;;;;4978023;28;20203;-79
2023/11/07 10:29:16;;;;;;;2.37;1.10;;;;;;;;;;4969359;28;20278;-80
2023/11/07 10:31:43;;;;;;;1.67;1.17;;;;;;;;;;4944371;28;20269;-78
2023/11/07 10:34:19;;;;;;;3.80;1.30;;;;;;;;;;4962864;28;20230;-78
2023/11/07 10:36:45;;;;;;;1.70;1.30;;;;;;;;;;4946979;28;20226;-78
2023/11/07 10:39:16;;;;;;;3.17;1.30;;;;;;;;;;4939090;28;20256;-79
2023/11/07 10:41:45;;;;;;;1.83;1.20;;;;;;;;;;4979909;28;20238;-78
2023/11/07 10:44:24;;;;;;;2.57;1.20;;;;;;;;;;4954750;28;20218;-79
2023/11/07 10:46:55;;;;;;;4.63;1.23;;;;;;;;;;4952658;28;20250;-78
2023/11/07 10:49:21;;;;;;;2.73;1.23;;;;;;;;;;4951978;28;20227;-78
2023/11/07 10:51:48;;;;;;;3.50;1.20;;;;;;;;;;4962363;28;20222;-77
2023/11/07 10:54:13;;;;;;;2.03;1.50;;;;;;;;;;4981525;28;20617;-78
2023/11/07 10:56:45;;;;;;;1.60;1.30;;;;;;;;;;4971433;28;20245;-79
2023/11/07 10:59:16;;;;;;;2.17;1.30;;;;;;;;;;4979361;28;20222;-78
2023/11/07 11:01:45;;;;;;;2.07;1.30;;;;;;;;;;4970565;28;20230;-79
2023/11/07 11:04:11;;;;;;;2.07;1.37;;;;;;;;;;4968292;28;20273;-78
2023/11/07 11:06:37;;;;;;;2.53;1.23;;;;;;;;;;4977743;28;20280;-79
2023/11/07 11:09:10;;;;;;;2.10;1.33;;;;;;;;;;4969484;28;20689;-78
2023/11/07 11:11:37;;;;;;;1.40;1.10;;;;;;;;;;4961426;28;20217;-76
2023/11/07 11:14:03;;;;;;;1.77;1.20;;;;;;;;;;4962630;28;20229;-78
2023/11/07 11:16:31;;;;;;;3.23;1.33;;;;;;;;;;4976404;28;20213;-77
2023/11/07 11:19:33;;;;;;;2.17;1.20;;;;;;;;;;4982602;28;20227;-77
2023/11/07 11:22:18;;;;;;;1.20;1.03;;;;;;;;;;4963759;28;20221;-78
2023/11/07 11:25:17;;;;;;;2.00;1.10;;;;;;;;;;4974014;28;20229;-77
2023/11/07 11:27:48;;;;;;;4.07;1.40;;;;;;;;;;4990423;28;20671;-78
2023/11/07 11:30:14;;;;;;;0.90;0.90;;;;;;;;;;4952997;28;20230;-79
2023/11/07 11:32:43;;;;;;;1.57;1.10;;;;;;;;;;4953743;28;20716;-78
2023/11/07 11:35:17;;;;;;;2.37;1.40;;;;;;;;;;4953847;28;21010;-79
2023/11/07 11:38:23;;;;;;;1.83;1.30;;;;;;;;;;4969031;28;20221;-78
2023/11/07 11:41:01;;;;;;;2.20;1.17;;;;;;;;;;4971422;28;20225;-78
2023/11/07 11:43:33;;;;;;;1.67;1.30;;;;;;;;;;4954527;28;20230;-78
2023/11/07 11:46:28;;;;;;;3.03;1.30;;;;;;;;;;4933350;29;20214;-78
2023/11/07 11:49:05;;;;;;;2.60;1.67;;;;;;;;;;4939131;28;20222;-78
2023/11/07 11:51:38;;;;;;;2.10;1.20;;;;;;;;;;4980085;28;20236;-79
2023/11/07 11:54:08;;;;;;;2.37;1.13;;;;;;;;;;4951621;28;20220;-80
2023/11/07 11:56:34;;;;;;;1.70;1.20;;;;;;;;;;4939374;28;20849;-77
2023/11/07 11:59:11;;;;;;;3.07;1.47;;;;;;;;;;4923416;29;20219;-78
2023/11/07 12:01:56;;;;;;;2.30;1.30;;;;;;;;;;4936583;28;20223;-78
2023/11/07 12:04:50;;;;;;;2.30;1.10;;;;;;;;;;4966462;28;20229;-78
2023/11/07 12:07:22;;;;;;;1.57;0.97;;;;;;;;;;4952748;28;20241;-78
2023/11/07 12:09:50;;;;;;;1.33;1.13;;;;;;;;;;4981175;28;20294;-78
2023/11/07 12:12:20;;;;;;;4.20;1.00;;;;;;;;;;4969459;28;20240;-79
2023/11/07 12:15:02;;;;;;;1.70;1.13;;;;;;;;;;4966860;28;20211;-78
2023/11/07 12:17:47;;;;;;;2.60;1.00;;;;;;;;;;4966389;28;20224;-78
2023/11/07 12:20:18;;;;;;;2.00;0.80;;;;;;;;;;4962819;28;20737;-80
2023/11/07 12:22:45;;;;;;;3.07;1.23;;;;;;;;;;4969213;28;20226;-79
2023/11/07 12:25:19;;;;;;;5.40;1.10;;;;;;;;;;4955023;28;20230;-78
2023/11/07 12:28:02;;;;;;;3.07;1.30;;;;;;;;;;4950140;28;20230;-78
2023/11/07 12:30:28;;;;;;;2.00;1.10;;;;;;;;;;4949620;28;20226;-78
2023/11/07 12:33:03;;;;;;;3.93;0.93;;;;;;;;;;4957392;28;20709;-78
2023/11/07 12:35:30;;;;;;;1.67;1.10;;;;;;;;;;4936424;28;20229;-77
2023/11/07 12:38:03;;;;;;;1.73;0.90;;;;;;;;;;4948657;28;20217;-77
2023/11/07 12:40:29;;;;;;;2.23;1.23;;;;;;;;;;4964111;28;20223;-76
2023/11/07 12:42:55;;;;;;;3.73;1.30;;;;;;;;;;4981448;28;20222;-78
2023/11/07 12:45:22;;;;;;;2.33;1.33;;;;;;;;;;4933603;28;20342;-77
2023/11/07 12:48:03;;;;;;;3.93;1.13;;;;;;;;;;4932237;28;20592;-78
2023/11/07 12:50:46;;;;;;;4.53;1.33;;;;;;;;;;4946802;28;20700;-77
2023/11/07 12:53:17;;;;;;;3.23;1.20;;;;;;;;;;4951893;28;20242;-78
2023/11/07 12:55:53;;;;;;;1.20;1.10;;;;;;;;;;4951339;28;20296;-79
2023/11/07 12:58:29;;;;;;;1.30;1.20;;;;;;;;;;4965433;28;20281;-77
2023/11/07 13:01:07;;;;;;;2.60;1.47;;;;;;;;;;4970005;28;20218;-77
2023/11/07 13:03:33;;;;;;;2.90;1.43;;;;;;;;;;4980766;28;20322;-80
2023/11/07 13:06:00;;;;;;;3.00;1.30;;;;;;;;;;4964696;28;20568;-78
2023/11/07 13:08:35;;;;;;;2.03;1.20;;;;;;;;;;4932071;28;20689;-77
2023/11/07 13:11:10;;;;;;;3.57;1.33;;;;;;;;;;4935996;29;20245;-77
2023/11/07 13:13:36;;;;;;;1.47;1.10;;;;;;;;;;4957340;28;20229;-78
2023/11/07 13:16:03;;;;;;;1.33;0.97;;;;;;;;;;4940406;28;20210;-77
2023/11/07 13:18:28;;;;;;;1.93;1.30;;;;;;;;;;4952883;28;20242;-77
2023/11/07 13:20:56;;;;;;;3.63;1.47;;;;;;;;;;4951987;28;20222;-78
2023/11/07 13:23:22;;;;;;;2.13;1.63;;;;;;;;;;4971709;28;20596;-78
2023/11/07 13:25:50;;;;;;;2.00;1.43;;;;;;;;;;4969986;28;20222;-78
2023/11/07 13:28:20;;;;;;;2.67;1.23;;;;;;;;;;4961756;28;20227;-77
2023/11/07 13:30:46;;;;;;;2.13;1.40;;;;;;;;;;4932757;29;20231;-78
2023/11/07 13:33:12;;;;;;;2.53;2.07;;;;;;;;;;4932598;28;20673;-78
2023/11/07 13:35:38;;;;;;;2.63;2.37;;;;;;;;;;4933903;29;20232;-78
2023/11/07 13:38:04;;;;;;;3.57;2.50;;;;;;;;;;4932582;28;20273;-79
2023/11/07 13:40:29;;;;;;;3.10;1.93;;;;;;;;;;4971409;28;20227;-79
2023/11/07 13:42:55;;;;;;;2.67;2.00;;;;;;;;;;4948814;28;20299;-79
2023/11/07 13:45:21;;;;;;;3.07;2.60;;;;;;;;;;4940912;28;20235;-79
2023/11/07 13:47:49;;;;;;;2.57;1.77;;;;;;;;;;4942017;28;20234;-80
2023/11/07 13:50:17;;;;;;;1.80;1.70;;;;;;;;;;4945077;28;20239;-79
2023/11/07 13:52:43;;;;;;;3.53;2.03;;;;;;;;;;4933426;28;20344;-80
2023/11/07 13:55:10;;;;;;;1.87;1.43;;;;;;;;;;4939624;28;20322;-78
2023/11/07 13:57:37;;;;;;;1.50;1.00;;;;;;;;;;4937949;28;20294;-79
2023/11/07 14:00:11;;;;;;;4.73;4.33;;;;;;;;;;4954022;28;20878;-78
2023/11/07 14:02:40;;;;;;;3.80;2.93;;;;;;;;;;4941710;28;20222;-79
2023/11/07 14:05:11;;;;;;;1.50;1.20;;;;;;;;;;4951594;28;20300;-78
2023/11/07 14:07:39;;;;;;;4.50;3.57;;;;;;;;;;4951879;28;20309;-80
2023/11/07 14:10:10;;;;;;;4.07;2.97;;;;;;;;;;4977327;28;20261;-78
2023/11/07 14:12:44;;;;;;;3.33;2.50;;;;;;;;;;4964446;28;20316;-79
2023/11/07 14:15:11;;;;;;;5.87;2.90;;;;;;;;;;4952170;28;20285;-79
2023/11/07 14:17:40;;;;;;;5.43;2.20;;;;;;;;;;4966357;28;20218;-78
2023/11/07 14:20:19;;;;;;;2.43;1.40;;;;;;;;;;4960084;28;20233;-78
2023/11/07 14:22:44;;;;;;;5.10;1.27;;;;;;;;;;4983826;28;20222;-78
2023/11/07 14:25:12;;;;;;;3.83;3.27;;;;;;;;;;4963920;28;20249;-78
2023/11/07 14:27:41;;;;;;;1.50;1.40;;;;;;;;;;4957561;28;20219;-78
2023/11/07 14:30:08;;;;;;;1.60;1.43;;;;;;;;;;4967898;28;20222;-77
2023/11/07 14:32:42;;;;;;;2.00;1.70;;;;;;;;;;4954901;28;20707;-78
2023/11/07 14:35:11;;;;;;;2.07;1.90;;;;;;;;;;4949825;28;20222;-78
2023/11/07 14:37:37;;;;;;;1.50;1.40;;;;;;;;;;4951450;28;20305;-77
2023/11/07 14:40:10;;;;;;;3.00;1.70;;;;;;;;;;4952914;28;20248;-78
2023/11/07 14:42:53;;;;;;;3.17;1.93;;;;;;;;;;4980071;28;20229;-78
2023/11/07 14:45:21;;;;;;;1.30;1.20;;;;;;;;;;4971126;28;20225;-78
2023/11/07 14:47:52;;;;;;;2.70;1.40;;;;;;;;;;4964482;28;20214;-79
2023/11/07 14:50:18;;;;;;;2.60;2.40;;;;;;;;;;4954429;28;20278;-79
2023/11/07 14:52:44;;;;;;;2.60;1.93;;;;;;;;;;4954864;28;20231;-78
2023/11/07 14:55:10;;;;;;;2.67;2.07;;;;;;;;;;4975939;28;20592;-78
2023/11/07 14:57:42;;;;;;;3.87;2.17;;;;;;;;;;4960363;28;20232;-79